Terminal Aerodrome Forecast
Issued by NWS Springfield, MO

Home | Current Version | Previous Version | Text Only | Print | Product List | Glossary On
Versions: 1 2 3 4 5 6 7 8 9 10 11 12 13 14 15 16 17 18 19 20 21 22
000
FTUS43 KSGF 241500 AAB
TAFSGF
TAF AMD
KSGF 241513Z 2415/2512 15012G22KT P6SM -SHRA BKN018 OVC080
      WS020/16040KT
     FM241700 16018G26KT P6SM SCT030 BKN050
     FM250300 16016G24KT P6SM SCT030 OVC050 WS020/21040KT
      TEMPO 2503/2507 6SM -TSRA OVC030CB=

USA.gov is the U.S. government's official web portal to all federal, state and local government web resources and services.